Time;durP1;ratioP1;P1;durP2;ratioP2;P2;SDS_P1;SDS_P2;PMS_P1;PMS_P2;Temp;Humidity;BMP_temperature;BMP_pressure;BME280_temperature;BME280_humidity;BME280_pressure;Samples;Min_cycle;Max_cycle;Signal;HPM_P1;HPM_P2
2021/10/26 00:01:24;;;;;;;;;;;;;;;0.12;58.46;100075.03;5062057;28;19943;-77
2021/10/26 00:03:50;;;;;;;;;;;;;;;0.15;58.71;100074.97;5061978;28;20356;-77
2021/10/26 00:06:16;;;;;;;;;;;;;;;0.22;58.79;100087.00;5061880;28;20394;-76
2021/10/26 00:08:42;;;;;;;;;;;;;;;0.32;58.44;100081.53;5061572;28;19953;-76
2021/10/26 00:11:08;;;;;;;;;;;;;;;0.39;58.26;100094.47;5061886;28;20413;-76
2021/10/26 00:13:34;;;;;;;;;;;;;;;0.36;58.81;100093.69;5061847;28;19920;-76
2021/10/26 00:16:00;;;;;;;;;;;;;;;0.32;58.31;100099.94;5061671;28;20018;-75
2021/10/26 00:18:26;;;;;;;;;;;;;;;0.34;58.05;100096.38;5095331;28;19941;-75
2021/10/26 00:20:52;;;;;;;;;;;;;;;0.33;58.00;100099.03;5078684;28;19919;-76
2021/10/26 00:23:17;;;;;;;;;;;;;;;0.35;57.90;100107.75;5078494;28;20272;-76
2021/10/26 00:25:44;;;;;;;;;;;;;;;0.33;57.97;100102.53;5078653;28;20375;-76
2021/10/26 00:28:10;;;;;;;;;;;;;;;0.44;57.68;100104.88;5078395;28;19985;-75
2021/10/26 00:30:36;;;;;;;;;;;;;;;0.48;57.49;100099.47;5078341;28;19919;-76
2021/10/26 00:33:02;;;;;;;;;;;;;;;0.50;57.81;100095.97;5061245;28;19920;-76
2021/10/26 00:35:28;;;;;;;;;;;;;;;0.54;57.68;100103.72;5061290;28;20367;-75
2021/10/26 00:37:55;;;;;;;;;;;;;;;0.56;58.23;100101.91;5061135;28;20418;-77
2021/10/26 00:40:22;;;;;;;;;;;;;;;0.62;58.06;100112.28;5078440;28;19920;-76
2021/10/26 00:42:48;;;;;;;;;;;;;;;0.65;58.22;100111.34;5061301;28;20363;-76
2021/10/26 00:45:13;;;;;;;;;;;;;;;0.69;57.87;100113.84;5078031;28;19934;-76
2021/10/26 00:47:39;;;;;;;;;;;;;;;0.64;58.01;100126.28;5061148;28;19924;-75
2021/10/26 00:50:05;;;;;;;;;;;;;;;0.65;57.97;100127.97;5077797;28;19920;-76
2021/10/26 00:52:31;;;;;;;;;;;;;;;0.57;58.31;100119.44;5076926;28;20038;-76
2021/10/26 00:54:59;;;;;;;;;;;;;;;0.69;57.99;100134.88;5060978;28;19920;-77
2021/10/26 00:57:26;;;;;;;;;;;;;;;0.77;57.97;100141.72;5061526;28;20405;-75
2021/10/26 00:59:54;;;;;;;;;;;;;;;0.59;58.19;100141.28;5061197;28;20235;-76
2021/10/26 01:02:20;;;;;;;;;;;;;;;0.64;58.54;100146.44;5077621;28;20102;-75
2021/10/26 01:04:46;;;;;;;;;;;;;;;0.69;58.63;100145.41;5060688;28;19974;-76
2021/10/26 01:07:12;;;;;;;;;;;;;;;0.75;58.58;100146.16;5094254;28;19927;-76
2021/10/26 01:09:39;;;;;;;;;;;;;;;0.76;58.28;100146.13;5061100;28;19919;-75
2021/10/26 01:12:05;;;;;;;;;;;;;;;0.73;58.41;100152.31;5062961;28;20363;-76
2021/10/26 01:14:31;;;;;;;;;;;;;;;0.77;58.10;100157.50;5064704;28;20392;-77
2021/10/26 01:17:07;;;;;;;;;;;;;;;0.75;58.10;100154.91;5078974;28;19920;-76
2021/10/26 01:19:42;;;;;;;;;;;;;;;0.65;57.94;100154.28;5040741;28;19928;-75
2021/10/26 01:22:08;;;;;;;;;;;;;;;0.61;58.03;100147.41;5041396;28;19920;-75
2021/10/26 01:24:34;;;;;;;;;;;;;;;0.48;57.90;100154.72;5041026;28;19967;-76
2021/10/26 01:27:00;;;;;;;;;;;;;;;0.27;57.81;100152.66;5057041;28;20307;-75
2021/10/26 01:29:26;;;;;;;;;;;;;;;0.24;58.13;100153.59;5024214;28;19920;-76
2021/10/26 01:31:52;;;;;;;;;;;;;;;0.33;58.41;100151.63;5042602;28;20027;-76
2021/10/26 01:34:23;;;;;;;;;;;;;;;0.37;58.51;100148.00;5058904;28;20284;-75
2021/10/26 01:36:49;;;;;;;;;;;;;;;0.38;58.53;100150.63;5058211;28;19932;-76
2021/10/26 01:39:16;;;;;;;;;;;;;;;0.22;58.45;100155.38;5074142;28;20290;-76
2021/10/26 01:41:41;;;;;;;;;;;;;;;0.26;58.27;100153.53;5058331;28;19981;-77
2021/10/26 01:44:07;;;;;;;;;;;;;;;0.21;58.75;100153.66;5050505;28;19919;-76
2021/10/26 01:46:36;;;;;;;;;;;;;;;0.27;58.38;100157.06;5074870;28;19927;-76
2021/10/26 01:49:02;;;;;;;;;;;;;;;0.28;58.44;100164.03;5077763;28;19993;-75
2021/10/26 01:51:29;;;;;;;;;;;;;;;0.30;58.86;100172.72;5099765;28;20431;-75
2021/10/26 01:53:54;;;;;;;;;;;;;;;0.27;59.04;100170.22;5082058;28;20397;-77
2021/10/26 01:56:21;;;;;;;;;;;;;;;0.23;58.99;100174.69;5082273;28;20331;-76
2021/10/26 01:58:54;;;;;;;;;;;;;;;0.18;59.15;100173.91;5084750;28;19919;-77
2021/10/26 02:01:24;;;;;;;;;;;;;;;0.14;59.07;100188.88;5060607;28;19966;-75
2021/10/26 02:03:50;;;;;;;;;;;;;;;0.06;59.66;100176.84;5086072;28;19927;-76
2021/10/26 02:06:19;;;;;;;;;;;;;;;-0.11;59.80;100193.88;5096780;28;20286;-76
2021/10/26 02:08:45;;;;;;;;;;;;;;;0.00;59.67;100185.75;5080004;28;19920;-77
2021/10/26 02:11:12;;;;;;;;;;;;;;;-0.05;59.70;100190.22;5079490;28;20002;-76
2021/10/26 02:13:39;;;;;;;;;;;;;;;-0.23;60.82;100202.00;5080523;28;19923;-78
2021/10/26 02:16:05;;;;;;;;;;;;;;;-0.29;60.23;100204.78;5079524;28;19996;-76
2021/10/26 02:18:32;;;;;;;;;;;;;;;-0.23;60.04;100203.78;5069579;28;20022;-76
2021/10/26 02:20:59;;;;;;;;;;;;;;;-0.13;60.03;100200.06;5076142;28;19923;-75
2021/10/26 02:23:25;;;;;;;;;;;;;;;-0.10;59.63;100210.50;5075716;28;19920;-77
2021/10/26 02:25:51;;;;;;;;;;;;;;;-0.20;59.61;100209.81;5092343;28;20010;-76
2021/10/26 02:28:17;;;;;;;;;;;;;;;-0.14;59.52;100208.84;5063274;28;19954;-77
2021/10/26 02:30:44;;;;;;;;;;;;;;;-0.15;59.48;100209.72;5095572;28;19919;-76
2021/10/26 02:33:11;;;;;;;;;;;;;;;-0.23;59.31;100216.91;5062676;28;20274;-76
2021/10/26 02:35:38;;;;;;;;;;;;;;;-0.27;59.62;100224.84;5078603;28;19926;-76
2021/10/26 02:38:04;;;;;;;;;;;;;;;-0.26;59.88;100237.13;5079097;28;20282;-76
2021/10/26 02:40:30;;;;;;;;;;;;;;;-0.48;60.58;100238.47;5078837;28;19919;-75
2021/10/26 02:42:56;;;;;;;;;;;;;;;-0.44;60.42;100231.38;5078482;28;19920;-75
2021/10/26 02:45:27;;;;;;;;;;;;;;;-0.52;60.34;100244.69;5062811;28;20278;-76
2021/10/26 02:47:53;;;;;;;;;;;;;;;-0.43;60.21;100247.09;5095907;28;19919;-77
2021/10/26 02:50:19;;;;;;;;;;;;;;;-0.47;60.08;100242.81;5078690;28;19931;-77
2021/10/26 02:52:46;;;;;;;;;;;;;;;-0.54;60.38;100251.72;5062355;28;19966;-75
2021/10/26 02:55:12;;;;;;;;;;;;;;;-0.67;61.31;100251.09;5078976;28;19951;-76
2021/10/26 02:57:38;;;;;;;;;;;;;;;-0.59;60.78;100258.81;5097186;28;20060;-76
2021/10/26 03:00:08;;;;;;;;;;;;;;;-0.66;61.51;100260.69;5113593;28;19920;-76
2021/10/26 03:02:35;;;;;;;;;;;;;;;-0.69;60.72;100252.03;5081146;28;19920;-76
2021/10/26 03:05:01;;;;;;;;;;;;;;;-0.74;61.23;100260.84;5097469;28;20329;-77
2021/10/26 03:07:28;;;;;;;;;;;;;;;-0.75;61.52;100260.91;5095840;28;19969;-77
2021/10/26 03:09:54;;;;;;;;;;;;;;;-0.67;61.05;100266.84;5079098;28;20290;-75
2021/10/26 03:12:20;;;;;;;;;;;;;;;-0.58;61.24;100265.81;5095733;28;20433;-77
2021/10/26 03:14:46;;;;;;;;;;;;;;;-0.69;61.37;100273.88;5078589;28;19997;-76
2021/10/26 03:17:12;;;;;;;;;;;;;;;-0.66;61.40;100270.34;5079273;28;20042;-75
2021/10/26 03:19:46;;;;;;;;;;;;;;;-0.63;61.06;100273.78;5081631;28;19920;-74
2021/10/26 03:22:12;;;;;;;;;;;;;;;-0.69;61.49;100287.00;5078606;28;19919;-77
2021/10/26 03:24:38;;;;;;;;;;;;;;;-0.70;62.10;100284.44;5078254;28;19997;-77
2021/10/26 03:27:04;;;;;;;;;;;;;;;-0.67;62.01;100282.59;5061964;28;19924;-76
2021/10/26 03:29:30;;;;;;;;;;;;;;;-0.45;61.84;100287.41;5078845;28;20018;-76
2021/10/26 03:31:56;;;;;;;;;;;;;;;-0.23;61.60;100293.09;5078510;28;20278;-78
2021/10/26 03:34:37;;;;;;;;;;;;;;;-0.08;61.37;100295.41;5089234;28;19920;-76
2021/10/26 03:37:04;;;;;;;;;;;;;;;0.00;60.65;100288.25;5074749;28;20319;-75
2021/10/26 03:39:33;;;;;;;;;;;;;;;-0.14;60.96;100292.94;5075537;28;20395;-76
2021/10/26 03:42:00;;;;;;;;;;;;;;;-0.35;60.99;100296.84;5058230;28;20394;-79
2021/10/26 03:44:27;;;;;;;;;;;;;;;-0.18;61.30;100300.00;5058021;28;19920;-75
2021/10/26 03:46:53;;;;;;;;;;;;;;;0.03;60.72;100306.56;5074584;28;20313;-76
2021/10/26 03:49:20;;;;;;;;;;;;;;;0.07;60.26;100297.72;5041807;28;19927;-77
2021/10/26 03:51:47;;;;;;;;;;;;;;;0.05;60.27;100315.28;5057961;28;19924;-76
2021/10/26 03:54:13;;;;;;;;;;;;;;;0.03;60.87;100311.81;5074559;28;20397;-76
2021/10/26 03:56:40;;;;;;;;;;;;;;;0.21;60.35;100316.69;5058284;28;19936;-77
2021/10/26 03:59:09;;;;;;;;;;;;;;;0.32;60.34;100312.94;5058478;28;19920;-77
2021/10/26 04:01:37;;;;;;;;;;;;;;;0.41;59.74;100318.00;5057941;28;19962;-76
2021/10/26 04:04:04;;;;;;;;;;;;;;;0.51;59.88;100330.03;5074543;28;19920;-77
2021/10/26 04:06:32;;;;;;;;;;;;;;;0.28;58.97;100329.69;5075103;28;20298;-77
2021/10/26 04:09:01;;;;;;;;;;;;;;;0.01;59.44;100334.66;5074598;28;20360;-75
2021/10/26 04:11:28;;;;;;;;;;;;;;;-0.10;60.25;100339.28;5075138;28;20332;-77
2021/10/26 04:13:57;;;;;;;;;;;;;;;-0.15;60.52;100339.38;5058478;28;19943;-77
2021/10/26 04:16:24;;;;;;;;;;;;;;;-0.12;60.44;100339.28;5076874;28;19975;-74
2021/10/26 04:18:51;;;;;;;;;;;;;;;-0.12;60.79;100346.31;5051322;28;19920;-74
2021/10/26 04:21:17;;;;;;;;;;;;;;;-0.09;60.59;100343.63;5075127;28;19920;-76
2021/10/26 04:23:47;;;;;;;;;;;;;;;0.02;60.54;100354.78;5057748;28;19931;-77
2021/10/26 04:26:15;;;;;;;;;;;;;;;0.14;60.14;100354.53;5058458;28;20286;-76
2021/10/26 04:28:41;;;;;;;;;;;;;;;0.22;60.28;100356.97;5095364;28;20010;-76
2021/10/26 04:31:07;;;;;;;;;;;;;;;0.29;59.78;100357.72;5045001;28;19959;-76
2021/10/26 04:33:34;;;;;;;;;;;;;;;0.46;59.35;100358.22;5061318;28;20423;-74
2021/10/26 04:36:00;;;;;;;;;;;;;;;0.63;59.59;100365.72;5077888;28;19932;-74
2021/10/26 04:38:26;;;;;;;;;;;;;;;0.63;58.90;100363.94;5060758;28;19920;-76
2021/10/26 04:40:57;;;;;;;;;;;;;;;0.76;58.98;100364.53;5043763;28;19973;-77
2021/10/26 04:43:26;;;;;;;;;;;;;;;0.85;58.45;100366.94;5078631;28;20378;-76
2021/10/26 04:45:53;;;;;;;;;;;;;;;1.00;58.78;100370.97;5094238;28;19931;-75
2021/10/26 04:48:22;;;;;;;;;;;;;;;1.01;57.94;100375.34;5060906;28;19927;-76
2021/10/26 04:50:48;;;;;;;;;;;;;;;1.05;57.97;100378.75;5060734;28;19924;-73
2021/10/26 04:53:15;;;;;;;;;;;;;;;0.99;57.47;100382.41;5060733;28;20428;-76
2021/10/26 04:55:49;;;;;;;;;;;;;;;1.14;57.96;100378.56;5062142;28;20035;-75
2021/10/26 04:58:15;;;;;;;;;;;;;;;1.06;57.25;100385.78;5058406;28;19919;-77
2021/10/26 05:00:43;;;;;;;;;;;;;;;1.02;57.75;100387.63;5058742;28;20379;-74
2021/10/26 05:03:10;;;;;;;;;;;;;;;1.13;57.53;100377.69;5058386;28;19946;-75
2021/10/26 05:05:38;;;;;;;;;;;;;;;1.23;57.55;100385.34;5058645;28;19920;-77
2021/10/26 05:08:04;;;;;;;;;;;;;;;1.12;57.19;100378.56;5058306;28;19924;-76
2021/10/26 05:10:32;;;;;;;;;;;;;;;1.21;57.65;100380.13;5075004;28;19968;-76
2021/10/26 05:12:58;;;;;;;;;;;;;;;1.33;57.28;100389.47;5093152;28;19926;-75
2021/10/26 05:15:42;;;;;;;;;;;;;;;1.37;57.01;100385.88;5094103;28;20441;-76
2021/10/26 05:18:35;;;;;;;;;;;;;;;1.36;56.91;100381.50;5057228;28;20012;-76
2021/10/26 05:21:36;;;;;;;;;;;;;;;1.44;57.07;100384.81;5021322;28;19921;-76
2021/10/26 05:24:32;;;;;;;;;;;;;;;1.42;56.85;100386.59;5068517;28;20442;-75
2021/10/26 05:27:07;;;;;;;;;;;;;;;1.48;56.83;100386.44;5078459;28;19923;-75
2021/10/26 05:29:33;;;;;;;;;;;;;;;1.28;56.85;100386.09;5043577;28;19920;-76
2021/10/26 05:31:58;;;;;;;;;;;;;;;1.31;57.10;100383.38;5077016;28;19923;-76
2021/10/26 05:34:25;;;;;;;;;;;;;;;1.43;57.08;100391.84;5060043;28;19920;-76
2021/10/26 05:36:51;;;;;;;;;;;;;;;1.45;56.40;100389.16;5076816;28;19920;-75
2021/10/26 05:39:17;;;;;;;;;;;;;;;1.58;56.84;100387.94;5059919;28;19916;-75
2021/10/26 05:41:43;;;;;;;;;;;;;;;1.57;56.15;100391.47;5059941;28;19920;-76
2021/10/26 05:44:09;;;;;;;;;;;;;;;1.65;56.08;100405.31;5059989;28;19928;-76
2021/10/26 05:46:36;;;;;;;;;;;;;;;1.72;55.70;100398.09;5059763;28;19924;-76
2021/10/26 05:49:03;;;;;;;;;;;;;;;1.83;55.81;100396.03;5060076;28;19919;-75
2021/10/26 05:51:29;;;;;;;;;;;;;;;1.93;55.84;100391.38;5076914;28;19927;-75
2021/10/26 05:53:55;;;;;;;;;;;;;;;1.96;55.41;100396.59;5060107;28;19965;-75
2021/10/26 05:56:23;;;;;;;;;;;;;;;1.63;54.39;100403.63;5076165;28;19919;-75
2021/10/26 05:58:50;;;;;;;;;;;;;;;1.35;55.72;100400.84;5077393;28;19982;-74
2021/10/26 06:01:17;;;;;;;;;;;;;;;1.13;56.57;100401.38;5076497;28;19920;-76
2021/10/26 06:03:43;;;;;;;;;;;;;;;1.28;56.56;100400.16;5093168;28;19920;-77
2021/10/26 06:06:09;;;;;;;;;;;;;;;1.27;56.83;100401.03;5076373;28;20440;-75
2021/10/26 06:08:35;;;;;;;;;;;;;;;1.41;56.65;100398.06;5093154;28;20279;-74
2021/10/26 06:11:07;;;;;;;;;;;;;;;1.43;56.40;100396.25;5059775;28;19945;-74
2021/10/26 06:13:37;;;;;;;;;;;;;;;1.32;56.10;100399.16;5077607;28;19927;-74
2021/10/26 06:16:03;;;;;;;;;;;;;;;1.28;56.41;100401.88;5059815;28;20427;-75
2021/10/26 06:18:29;;;;;;;;;;;;;;;1.34;56.26;100391.19;5076109;28;19924;-75
2021/10/26 06:20:55;;;;;;;;;;;;;;;1.54;56.26;100393.31;5059246;28;20290;-76
2021/10/26 06:23:23;;;;;;;;;;;;;;;1.59;56.39;100400.22;5059205;28;20005;-76
2021/10/26 06:25:50;;;;;;;;;;;;;;;1.68;56.16;100394.69;5075873;28;19920;-75
2021/10/26 06:28:36;;;;;;;;;;;;;;;1.56;55.99;100402.91;5075288;28;20066;-75
2021/10/26 06:31:03;;;;;;;;;;;;;;;1.64;56.19;100406.22;5059074;28;20035;-76
2021/10/26 06:33:32;;;;;;;;;;;;;;;1.62;55.62;100413.31;5060477;28;19927;-75
2021/10/26 06:36:07;;;;;;;;;;;;;;;1.75;55.48;100410.34;5076928;28;19981;-75
2021/10/26 06:38:33;;;;;;;;;;;;;;;1.78;55.40;100403.22;5075726;28;19920;-76
2021/10/26 06:40:59;;;;;;;;;;;;;;;1.82;55.06;100399.59;5059028;28;19924;-75
2021/10/26 06:43:27;;;;;;;;;;;;;;;1.77;55.59;100395.34;5075791;28;19975;-74
2021/10/26 06:46:16;;;;;;;;;;;;;;;1.83;55.15;100408.34;5050264;28;19926;-76
2021/10/26 06:49:01;;;;;;;;;;;;;;;1.83;55.33;100405.72;5078056;28;20040;-76
2021/10/26 06:51:45;;;;;;;;;;;;;;;1.79;55.56;100409.34;5063882;28;20289;-75
2021/10/26 06:54:30;;;;;;;;;;;;;;;2.07;54.84;100404.16;5078636;28;19924;-75
2021/10/26 06:57:16;;;;;;;;;;;;;;;2.16;54.19;100407.41;5078233;28;19927;-76
2021/10/26 07:00:00;;;;;;;;;;;;;;;2.14;54.00;100411.91;5078027;28;19927;-76
2021/10/26 07:02:50;;;;;;;;;;;;;;;2.06;53.20;100408.59;5077649;28;20014;-76
2021/10/26 07:05:35;;;;;;;;;;;;;;;2.13;54.23;100407.50;5078452;28;19927;-77
2021/10/26 07:08:31;;;;;;;;;;;;;;;2.34;54.20;100408.66;5025703;28;19928;-75
2021/10/26 07:11:32;;;;;;;;;;;;;;;2.55;54.33;100407.16;5019254;28;19952;-76
2021/10/26 07:14:04;;;;;;;;;;;;;;;2.55;54.75;100412.44;5066045;28;19927;-75
2021/10/26 07:16:32;;;;;;;;;;;;;;;2.83;54.26;100411.59;5074902;28;19920;-76
2021/10/26 07:18:57;;;;;;;;;;;;;;;3.05;53.61;100412.66;5058512;28;19996;-76
2021/10/26 07:21:24;;;;;;;;;;;;;;;3.11;52.60;100407.16;5074842;28;20279;-77
2021/10/26 07:24:09;;;;;;;;;;;;;;;3.12;52.87;100400.97;5077036;28;19961;-77
2021/10/26 07:26:44;;;;;;;;;;;;;;;3.01;52.70;100408.38;5059250;28;19930;-75
2021/10/26 07:29:10;;;;;;;;;;;;;;;2.96;53.08;100396.22;5075278;28;20023;-76
2021/10/26 07:31:38;;;;;;;;;;;;;;;2.91;53.34;100404.31;5058586;28;19970;-76
2021/10/26 07:34:04;;;;;;;;;;;;;;;3.07;52.72;100399.38;5057802;28;20007;-75
2021/10/26 07:36:38;;;;;;;;;;;;;;;3.03;51.54;100408.31;5074827;28;20393;-76
2021/10/26 07:39:08;;;;;;;;;;;;;;;3.07;52.51;100400.25;5091589;28;19951;-75
2021/10/26 07:41:34;;;;;;;;;;;;;;;3.11;52.38;100399.22;5058554;28;20014;-76
2021/10/26 07:44:39;;;;;;;;;;;;;;;3.10;53.04;100394.00;5033891;28;20430;-75
2021/10/26 07:47:17;;;;;;;;;;;;;;;3.24;53.02;100386.50;5019687;28;20411;-76
2021/10/26 07:49:44;;;;;;;;;;;;;;;3.17;53.57;100379.69;5040096;28;19920;-76
2021/10/26 07:52:10;;;;;;;;;;;;;;;3.29;53.57;100381.06;5074711;28;20006;-76
2021/10/26 07:54:36;;;;;;;;;;;;;;;3.67;53.27;100373.59;5074589;28;19926;-75
2021/10/26 07:57:03;;;;;;;;;;;;;;;4.02;52.37;100383.75;5074828;28;20377;-74
2021/10/26 07:59:28;;;;;;;;;;;;;;;4.10;50.55;100379.06;5058060;28;20386;-75
2021/10/26 08:01:54;;;;;;;;;;;;;;;3.91;50.79;100377.97;5093699;28;19920;-75
2021/10/26 08:04:42;;;;;;;;;;;;;;;3.91;50.56;100372.69;5070572;28;20018;-76
2021/10/26 08:07:18;;;;;;;;;;;;;;;4.07;50.50;100376.53;5063317;28;20014;-76
2021/10/26 08:09:49;;;;;;;;;;;;;;;4.40;50.62;100373.56;5061735;28;19927;-75
2021/10/26 08:12:15;;;;;;;;;;;;;;;4.62;49.16;100377.06;5061720;28;19927;-74
2021/10/26 08:14:41;;;;;;;;;;;;;;;4.14;48.00;100379.81;5061699;28;19927;-75
2021/10/26 08:17:08;;;;;;;;;;;;;;;4.20;49.04;100369.00;5061623;28;19920;-75
2021/10/26 08:19:34;;;;;;;;;;;;;;;4.14;49.52;100372.75;5078302;28;19973;-75
2021/10/26 08:22:03;;;;;;;;;;;;;;;3.95;49.60;100369.06;5078343;28;19927;-76
2021/10/26 08:24:31;;;;;;;;;;;;;;;4.28;50.32;100372.19;5077715;28;19977;-75
2021/10/26 08:26:59;;;;;;;;;;;;;;;4.56;50.29;100379.09;5061819;28;19924;-74
2021/10/26 08:37:07;;;;;;;;;;;;;;;5.42;48.94;100368.53;5077878;28;19920;-75
2021/10/26 08:39:36;;;;;;;;;;;;;;;5.65;46.76;100369.34;5078481;28;19920;-76
2021/10/26 08:42:02;;;;;;;;;;;;;;;5.62;46.91;100364.16;5061288;28;20286;-75
2021/10/26 08:44:28;;;;;;;;;;;;;;;5.73;47.40;100364.56;5077856;28;19943;-75
2021/10/26 08:46:54;;;;;;;;;;;;;;;5.82;46.22;100357.03;5078126;28;20458;-75
2021/10/26 08:49:23;;;;;;;;;;;;;;;6.02;46.16;100363.31;5061737;28;20267;-75
2021/10/26 08:52:08;;;;;;;;;;;;;;;5.69;45.49;100357.66;5066589;28;19920;-75
2021/10/26 08:54:35;;;;;;;;;;;;;;;5.67;45.49;100363.03;5061316;28;20420;-75
2021/10/26 08:57:05;;;;;;;;;;;;;;;5.71;44.23;100353.16;5094643;28;19927;-77
2021/10/26 09:00:06;;;;;;;;;;;;;;;5.67;43.47;100351.56;5082085;28;19923;-76
2021/10/26 09:02:36;;;;;;;;;;;;;;;5.92;44.23;100351.34;5094417;28;19924;-75
2021/10/26 09:05:09;;;;;;;;;;;;;;;6.05;43.91;100348.09;5060740;28;19920;-76
2021/10/26 09:07:34;;;;;;;;;;;;;;;6.33;44.65;100352.16;5060766;28;19945;-76
2021/10/26 09:10:11;;;;;;;;;;;;;;;6.48;43.42;100331.97;5077484;28;19920;-76
2021/10/26 09:16:42;;;;;;;;;;;;;;;6.60;42.17;100328.72;5083098;28;19958;-76
2021/10/26 09:19:28;;;;;;;;;;;;;;;6.87;42.74;100331.84;5094665;28;19973;-76
2021/10/26 09:21:58;;;;;;;;;;;;;;;6.90;42.22;100330.84;5061084;28;20386;-75
2021/10/26 09:24:24;;;;;;;;;;;;;;;6.46;41.30;100332.03;5076950;28;19920;-75
2021/10/26 09:26:58;;;;;;;;;;;;;;;6.79;42.06;100342.00;5060175;28;19928;-76
2021/10/26 09:29:26;;;;;;;;;;;;;;;6.99;42.24;100333.03;5077627;28;19926;-75
2021/10/26 09:31:53;;;;;;;;;;;;;;;7.23;42.00;100325.66;5076731;28;19946;-75
2021/10/26 09:34:19;;;;;;;;;;;;;;;7.55;42.35;100330.16;5077004;28;19920;-73
2021/10/26 09:36:46;;;;;;;;;;;;;;;7.81;41.15;100324.41;5093722;28;20278;-76
2021/10/26 09:39:13;;;;;;;;;;;;;;;7.94;41.09;100322.84;5095185;28;20339;-75
2021/10/26 09:41:58;;;;;;;;;;;;;;;7.62;40.28;100313.88;5076720;28;20466;-76
2021/10/26 09:44:25;;;;;;;;;;;;;;;7.81;40.08;100306.66;5094095;28;19919;-75
2021/10/26 09:46:51;;;;;;;;;;;;;;;8.05;39.89;100307.16;5060184;28;20026;-75
2021/10/26 09:49:24;;;;;;;;;;;;;;;8.15;40.15;100302.16;5093621;28;19928;-77
2021/10/26 09:51:54;;;;;;;;;;;;;;;8.14;39.24;100300.44;5059776;28;19931;-76
2021/10/26 09:54:20;;;;;;;;;;;;;;;8.17;39.40;100298.50;5076843;28;19920;-76
2021/10/26 09:57:06;;;;;;;;;;;;;;;8.38;38.85;100300.94;5093644;28;19920;-75
2021/10/26 09:59:35;;;;;;;;;;;;;;;8.26;38.88;100294.44;5076783;28;19920;-76
2021/10/26 10:02:01;;;;;;;;;;;;;;;8.34;39.10;100292.22;5076122;28;19927;-76
2021/10/26 10:04:34;;;;;;;;;;;;;;;8.31;38.57;100291.53;5092850;28;19920;-75
2021/10/26 10:07:00;;;;;;;;;;;;;;;8.56;38.63;100293.72;5076240;28;19973;-77
2021/10/26 10:09:25;;;;;;;;;;;;;;;8.90;37.47;100289.97;5076606;28;19962;-76
2021/10/26 10:11:59;;;;;;;;;;;;;;;8.85;37.69;100281.41;5093075;28;19920;-77
2021/10/26 10:14:25;;;;;;;;;;;;;;;9.00;37.23;100278.69;5059580;28;19951;-75
2021/10/26 10:16:54;;;;;;;;;;;;;;;9.14;37.34;100277.88;5059434;28;20349;-77
2021/10/26 10:19:20;;;;;;;;;;;;;;;9.26;36.99;100275.44;5076791;28;19950;-75
2021/10/26 10:21:47;;;;;;;;;;;;;;;9.45;36.89;100276.91;5059635;28;20337;-75
2021/10/26 10:24:16;;;;;;;;;;;;;;;9.65;36.05;100278.34;5091971;28;20028;-76
2021/10/26 10:26:42;;;;;;;;;;;;;;;9.84;35.74;100272.72;5059582;28;19931;-76
2021/10/26 10:29:08;;;;;;;;;;;;;;;9.97;35.17;100272.84;5092657;28;19920;-77
2021/10/26 10:31:35;;;;;;;;;;;;;;;10.14;35.37;100269.94;5092968;28;19920;-75
2021/10/26 10:34:01;;;;;;;;;;;;;;;10.16;34.94;100262.72;5076049;28;20020;-76
2021/10/26 10:36:27;;;;;;;;;;;;;;;10.36;35.34;100263.28;5093100;28;19920;-77
2021/10/26 10:38:54;;;;;;;;;;;;;;;10.30;34.45;100255.63;5059231;28;19985;-77
2021/10/26 10:41:23;;;;;;;;;;;;;;;10.53;34.50;100254.16;5075922;28;19927;-75
2021/10/26 10:43:52;;;;;;;;;;;;;;;9.97;34.13;100259.50;5058797;28;20383;-76
2021/10/26 10:46:37;;;;;;;;;;;;;;;9.49;35.02;100267.75;5058817;28;19970;-76
2021/10/26 10:49:19;;;;;;;;;;;;;;;9.16;35.64;100261.78;5076503;28;20038;-76
2021/10/26 10:51:52;;;;;;;;;;;;;;;9.40;35.29;100263.00;5092689;28;20383;-76
2021/10/26 10:54:54;;;;;;;;;;;;;;;9.64;35.08;100249.94;5075887;28;19926;-76
2021/10/26 10:57:20;;;;;;;;;;;;;;;10.17;35.06;100252.88;4962946;28;19926;-75
2021/10/26 11:00:04;;;;;;;;;;;;;;;10.62;33.65;100253.56;5072994;28;19927;-77
2021/10/26 11:02:34;;;;;;;;;;;;;;;10.88;33.49;100250.00;5058940;28;19932;-76
2021/10/26 11:05:00;;;;;;;;;;;;;;;11.13;33.27;100253.69;5075510;28;19924;-78
2021/10/26 11:07:42;;;;;;;;;;;;;;;11.47;32.22;100248.72;5092174;28;19927;-77
2021/10/26 11:10:13;;;;;;;;;;;;;;;11.68;32.13;100247.22;5059203;28;19973;-76
2021/10/26 11:12:38;;;;;;;;;;;;;;;11.81;31.95;100249.88;5058746;28;19934;-76
2021/10/26 11:15:05;;;;;;;;;;;;;;;12.06;31.51;100251.72;5075369;28;19919;-76
2021/10/26 11:17:33;;;;;;;;;;;;;;;12.09;30.70;100240.78;5075513;28;19927;-76
2021/10/26 11:19:59;;;;;;;;;;;;;;;12.55;30.76;100245.47;5093307;28;20003;-75
2021/10/26 11:22:44;;;;;;;;;;;;;;;12.61;30.06;100234.28;5091876;28;19920;-77
2021/10/26 11:25:22;;;;;;;;;;;;;;;12.35;30.25;100249.63;5092297;28;20464;-77
2021/10/26 11:27:48;;;;;;;;;;;;;;;12.26;30.43;100243.09;5074914;28;20361;-77
2021/10/26 11:30:29;;;;;;;;;;;;;;;12.11;30.95;100252.22;5058531;28;19970;-75
2021/10/26 11:33:13;;;;;;;;;;;;;;;12.21;31.03;100247.06;5093356;28;19919;-76
2021/10/26 11:36:02;;;;;;;;;;;;;;;12.15;31.14;100243.03;5060454;28;19958;-76
2021/10/26 11:38:32;;;;;;;;;;;;;;;11.89;31.36;100245.75;5062962;28;20324;-76
2021/10/26 11:41:04;;;;;;;;;;;;;;;12.17;31.05;100240.22;5080110;28;19927;-77
2021/10/26 11:43:47;;;;;;;;;;;;;;;12.69;30.70;100242.63;5063056;28;19930;-77
2021/10/26 11:46:33;;;;;;;;;;;;;;;12.69;29.69;100242.63;5096820;28;19920;-76
2021/10/26 11:48:59;;;;;;;;;;;;;;;12.95;28.88;100237.97;5079305;28;20332;-76
2021/10/26 11:51:26;;;;;;;;;;;;;;;12.03;29.71;100239.38;5097089;28;19920;-75
2021/10/26 11:53:58;;;;;;;;;;;;;;;10.75;30.71;100249.09;5079080;28;20337;-77
2021/10/26 11:56:29;;;;;;;;;;;;;;;9.99;31.82;100244.22;5061958;28;19968;-76
2021/10/26 11:58:55;;;;;;;;;;;;;;;9.51;32.13;100248.13;5078914;28;19919;-77
2021/10/26 12:01:21;;;;;;;;;;;;;;;8.89;28.67;100253.59;5062056;28;20382;-76
2021/10/26 12:03:48;;;;;;;;;;;;;;;8.15;28.80;100248.91;5078807;28;20018;-75
2021/10/26 12:06:27;;;;;;;;;;;;;;;7.51;29.83;100248.78;5062055;28;20294;-75
2021/10/26 12:08:57;;;;;;;;;;;;;;;7.12;30.58;100237.59;5062000;28;19927;-76
2021/10/26 12:11:30;;;;;;;;;;;;;;;7.01;31.56;100240.78;5078775;28;19920;-77
2021/10/26 12:14:16;;;;;;;;;;;;;;;6.61;32.42;100250.75;5062078;28;19927;-75
2021/10/26 12:17:01;;;;;;;;;;;;;;;6.32;33.52;100242.41;5062188;28;19919;-77
2021/10/26 12:19:30;;;;;;;;;;;;;;;6.29;33.55;100245.22;5061684;28;19927;-76
2021/10/26 12:21:56;;;;;;;;;;;;;;;6.26;34.15;100245.34;5061388;28;19926;-75
2021/10/26 12:24:25;;;;;;;;;;;;;;;6.36;34.15;100240.47;5096049;28;20370;-77
2021/10/26 12:27:02;;;;;;;;;;;;;;;6.28;34.76;100243.50;5061724;28;19931;-76
2021/10/26 12:29:32;;;;;;;;;;;;;;;6.14;35.15;100239.78;5078430;28;20022;-75
2021/10/26 12:31:58;;;;;;;;;;;;;;;6.06;34.94;100248.97;5061162;28;19927;-75
2021/10/26 12:34:24;;;;;;;;;;;;;;;5.99;35.22;100247.53;5096543;28;19920;-74
2021/10/26 12:36:50;;;;;;;;;;;;;;;5.98;35.66;100248.47;5095064;28;19930;-76
2021/10/26 12:39:23;;;;;;;;;;;;;;;5.92;37.02;100246.09;5078250;28;19951;-75
2021/10/26 12:41:49;;;;;;;;;;;;;;;5.89;38.40;100246.19;5077947;28;19926;-76
2021/10/26 12:44:18;;;;;;;;;;;;;;;5.71;39.66;100250.53;5061373;28;20369;-77
2021/10/26 12:46:44;;;;;;;;;;;;;;;5.66;39.95;100249.03;5060340;28;19919;-77
2021/10/26 12:49:12;;;;;;;;;;;;;;;5.59;40.65;100254.63;5077788;28;19924;-75
2021/10/26 12:51:38;;;;;;;;;;;;;;;5.55;40.85;100245.06;5061159;28;20450;-76
2021/10/26 12:54:19;;;;;;;;;;;;;;;5.59;41.30;100249.31;5078373;28;19919;-75
2021/10/26 12:56:45;;;;;;;;;;;;;;;5.63;41.17;100260.66;5062684;28;19946;-76
2021/10/26 12:59:18;;;;;;;;;;;;;;;5.66;41.40;100254.34;5078628;28;19920;-76
2021/10/26 13:01:46;;;;;;;;;;;;;;;5.66;41.29;100249.91;5078325;28;19945;-76
2021/10/26 13:04:19;;;;;;;;;;;;;;;5.61;41.72;100257.22;5062162;28;19920;-76
2021/10/26 13:06:54;;;;;;;;;;;;;;;5.57;41.47;100255.63;5063523;28;19923;-76
2021/10/26 13:09:25;;;;;;;;;;;;;;;5.54;41.44;100256.63;5097897;28;19924;-75
2021/10/26 13:12:01;;;;;;;;;;;;;;;5.60;41.52;100256.38;5082041;28;20022;-76